sensor_id;sensor_type;location;lat;lon;timestamp;pressure;altitude;pressure_sealevel;temperature;humidity
30021;BME280;16861;52.294;7.760;2023-04-10T00:00:53;100496.75;;;10.62;47.80
30021;BME280;16861;52.294;7.760;2023-04-10T00:03:23;100499.41;;;10.62;47.97
30021;BME280;16861;52.294;7.760;2023-04-10T00:05:50;100490.63;;;10.61;47.87
30021;BME280;16861;52.294;7.760;2023-04-10T00:08:22;100495.13;;;10.59;47.98
30021;BME280;16861;52.294;7.760;2023-04-10T00:10:48;100488.06;;;10.60;48.01
30021;BME280;16861;52.294;7.760;2023-04-10T00:13:15;100485.44;;;10.60;48.07
30021;BME280;16861;52.294;7.760;2023-04-10T00:15:42;100479.41;;;10.58;48.24
30021;BME280;16861;52.294;7.760;2023-04-10T00:18:09;100475.06;;;10.57;48.17
30021;BME280;16861;52.294;7.760;2023-04-10T00:20:35;100482.09;;;10.56;48.16
30021;BME280;16861;52.294;7.760;2023-04-10T00:23:02;100475.06;;;10.57;48.32
30021;BME280;16861;52.294;7.760;2023-04-10T00:25:28;100468.06;;;10.55;48.36
30021;BME280;16861;52.294;7.760;2023-04-10T00:27:55;100467.22;;;10.55;48.29
30021;BME280;16861;52.294;7.760;2023-04-10T00:30:22;100466.31;;;10.56;48.26
30021;BME280;16861;52.294;7.760;2023-04-10T00:32:48;100452.28;;;10.55;48.45
30021;BME280;16861;52.294;7.760;2023-04-10T00:35:15;100456.63;;;10.57;48.29
30021;BME280;16861;52.294;7.760;2023-04-10T00:37:42;100449.63;;;10.55;48.47
30021;BME280;16861;52.294;7.760;2023-04-10T00:40:08;100442.69;;;10.54;48.46
30021;BME280;16861;52.294;7.760;2023-04-10T00:42:35;100441.75;;;10.55;48.63
30021;BME280;16861;52.294;7.760;2023-04-10T00:45:02;100437.47;;;10.53;48.53
30021;BME280;16861;52.294;7.760;2023-04-10T00:47:29;100439.28;;;10.52;48.47
30021;BME280;16861;52.294;7.760;2023-04-10T00:49:56;100428.75;;;10.52;48.70
30021;BME280;16861;52.294;7.760;2023-04-10T00:52:24;100432.44;;;10.48;48.60
30021;BME280;16861;52.294;7.760;2023-04-10T00:54:51;100437.69;;;10.48;48.78
30021;BME280;16861;52.294;7.760;2023-04-10T00:57:18;100439.47;;;10.48;48.58
30021;BME280;16861;52.294;7.760;2023-04-10T00:59:45;100431.63;;;10.46;48.82
30021;BME280;16861;52.294;7.760;2023-04-10T01:02:11;100429.00;;;10.46;48.66
30021;BME280;16861;52.294;7.760;2023-04-10T01:04:40;100427.31;;;10.45;48.84
30021;BME280;16861;52.294;7.760;2023-04-10T01:07:48;100435.38;;;10.40;49.12
30021;BME280;16861;52.294;7.760;2023-04-10T01:13:14;100427.56;;;10.39;49.24
30021;BME280;16861;52.294;7.760;2023-04-10T01:16:18;100427.56;;;10.39;49.37
30021;BME280;16861;52.294;7.760;2023-04-10T01:21:27;100418.75;;;10.40;48.77
30021;BME280;16861;52.294;7.760;2023-04-10T01:24:17;100420.72;;;10.35;49.08
30021;BME280;16861;52.294;7.760;2023-04-10T01:27:11;100421.63;;;10.34;49.25
30021;BME280;16861;52.294;7.760;2023-04-10T01:29:50;100416.38;;;10.34;49.17
30021;BME280;16861;52.294;7.760;2023-04-10T01:32:20;100419.06;;;10.32;49.38
30021;BME280;16861;52.294;7.760;2023-04-10T01:34:53;100420.94;;;10.30;49.54
30021;BME280;16861;52.294;7.760;2023-04-10T01:37:26;100420.16;;;10.28;49.51
30021;BME280;16861;52.294;7.760;2023-04-10T01:40:00;100409.63;;;10.28;49.62
30021;BME280;16861;52.294;7.760;2023-04-10T01:42:30;100404.38;;;10.28;49.38
30021;BME280;16861;52.294;7.760;2023-04-10T01:45:00;100400.88;;;10.27;49.53
30021;BME280;16861;52.294;7.760;2023-04-10T01:47:27;100402.72;;;10.25;49.29
30021;BME280;16861;52.294;7.760;2023-04-10T01:49:59;100399.31;;;10.23;49.29
30021;BME280;16861;52.294;7.760;2023-04-10T01:52:27;100391.41;;;10.23;49.47
30021;BME280;16861;52.294;7.760;2023-04-10T01:54:58;100394.97;;;10.22;49.38
30021;BME280;16861;52.294;7.760;2023-04-10T01:57:31;100385.44;;;10.20;49.37
30021;BME280;16861;52.294;7.760;2023-04-10T02:00:08;100389.84;;;10.19;49.39
30021;BME280;16861;52.294;7.760;2023-04-10T02:02:36;100386.44;;;10.17;49.14
30021;BME280;16861;52.294;7.760;2023-04-10T02:05:03;100392.66;;;10.14;49.42
30021;BME280;16861;52.294;7.760;2023-04-10T02:08:07;100386.00;;;10.07;49.83
30021;BME280;16861;52.294;7.760;2023-04-10T02:10:58;100388.63;;;10.07;50.08
30021;BME280;16861;52.294;7.760;2023-04-10T02:13:28;100382.44;;;10.08;49.59
30021;BME280;16861;52.294;7.760;2023-04-10T02:15:59;100386.91;;;10.06;49.87
30021;BME280;16861;52.294;7.760;2023-04-10T02:18:36;100380.88;;;10.04;49.91
30021;BME280;16861;52.294;7.760;2023-04-10T02:21:22;100377.38;;;10.03;49.85
30021;BME280;16861;52.294;7.760;2023-04-10T02:23:56;100377.47;;;10.02;49.59
30021;BME280;16861;52.294;7.760;2023-04-10T02:26:27;100373.16;;;9.99;50.19
30021;BME280;16861;52.294;7.760;2023-04-10T02:28:53;100379.34;;;9.98;50.03
30021;BME280;16861;52.294;7.760;2023-04-10T02:31:25;100380.28;;;9.97;50.12
30021;BME280;16861;52.294;7.760;2023-04-10T02:33:53;100366.38;;;9.95;50.08
30021;BME280;16861;52.294;7.760;2023-04-10T02:36:21;100376.88;;;9.95;50.02
30021;BME280;16861;52.294;7.760;2023-04-10T02:38:56;100366.38;;;9.95;50.20
30021;BME280;16861;52.294;7.760;2023-04-10T02:41:25;100359.19;;;9.99;49.76
30021;BME280;16861;52.294;7.760;2023-04-10T02:43:58;100369.13;;;9.92;50.30
30021;BME280;16861;52.294;7.760;2023-04-10T02:46:40;100363.84;;;9.92;50.46
30021;BME280;16861;52.294;7.760;2023-04-10T02:49:37;100359.59;;;9.89;50.34
30021;BME280;16861;52.294;7.760;2023-04-10T02:52:37;100365.75;;;9.88;50.54
30021;BME280;16861;52.294;7.760;2023-04-10T02:55:46;100358.72;;;9.89;50.22
30021;BME280;16861;52.294;7.760;2023-04-10T02:58:33;100371.88;;;9.89;50.17
30021;BME280;16861;52.294;7.760;2023-04-10T03:01:19;100367.53;;;9.88;50.25
30021;BME280;16861;52.294;7.760;2023-04-10T03:04:17;100351.72;;;9.89;49.84
30021;BME280;16861;52.294;7.760;2023-04-10T03:07:12;100358.84;;;9.86;50.46
30021;BME280;16861;52.294;7.760;2023-04-10T03:10:07;100344.94;;;9.84;50.09
30021;BME280;16861;52.294;7.760;2023-04-10T03:12:35;100345.88;;;9.83;50.25
30021;BME280;16861;52.294;7.760;2023-04-10T03:15:04;100338.97;;;9.80;50.25
30021;BME280;16861;52.294;7.760;2023-04-10T03:17:31;100341.59;;;9.80;50.42
30021;BME280;16861;52.294;7.760;2023-04-10T03:19:58;100338.22;;;9.76;50.30
30021;BME280;16861;52.294;7.760;2023-04-10T03:22:24;100338.22;;;9.76;50.45
30021;BME280;16861;52.294;7.760;2023-04-10T03:24:58;100341.78;;;9.75;50.22
30021;BME280;16861;52.294;7.760;2023-04-10T03:27:25;100337.53;;;9.73;50.43
30021;BME280;16861;52.294;7.760;2023-04-10T03:29:52;100339.28;;;9.72;50.53
30021;BME280;16861;52.294;7.760;2023-04-10T03:32:31;100326.94;;;9.74;50.39
30021;BME280;16861;52.294;7.760;2023-04-10T03:35:09;100331.41;;;9.72;50.20
30021;BME280;16861;52.294;7.760;2023-04-10T03:37:38;100330.50;;;9.73;50.24
30021;BME280;16861;52.294;7.760;2023-04-10T03:40:07;100336.66;;;9.72;50.57
30021;BME280;16861;52.294;7.760;2023-04-10T03:42:38;100318.25;;;9.72;50.18
30021;BME280;16861;52.294;7.760;2023-04-10T03:45:08;100318.25;;;9.72;50.02
30021;BME280;16861;52.294;7.760;2023-04-10T03:47:35;100314.84;;;9.70;50.26
30021;BME280;16861;52.294;7.760;2023-04-10T03:50:01;100315.69;;;9.71;50.26
30021;BME280;16861;52.294;7.760;2023-04-10T03:52:30;100320.94;;;9.71;50.33
30021;BME280;16861;52.294;7.760;2023-04-10T03:54:58;100325.38;;;9.70;50.31
30021;BME280;16861;52.294;7.760;2023-04-10T03:57:24;100320.13;;;9.70;50.57
30021;BME280;16861;52.294;7.760;2023-04-10T03:59:53;100323.56;;;9.71;50.32
30021;BME280;16861;52.294;7.760;2023-04-10T04:02:20;100321.03;;;9.69;50.25
30021;BME280;16861;52.294;7.760;2023-04-10T04:04:49;100321.03;;;9.69;50.39
30021;BME280;16861;52.294;7.760;2023-04-10T04:07:16;100323.56;;;9.71;50.39
30021;BME280;16861;52.294;7.760;2023-04-10T04:09:43;100328.84;;;9.71;50.40
30021;BME280;16861;52.294;7.760;2023-04-10T04:14:51;100329.63;;;9.73;50.24
30021;BME280;16861;52.294;7.760;2023-04-10T04:17:18;100331.41;;;9.72;50.06
30021;BME280;16861;52.294;7.760;2023-04-10T04:19:44;100328.72;;;9.74;50.31
30021;BME280;16861;52.294;7.760;2023-04-10T04:22:11;100328.66;;;9.75;50.30
30021;BME280;16861;52.294;7.760;2023-04-10T04:24:37;100332.91;;;9.78;50.02
30021;BME280;16861;52.294;7.760;2023-04-10T04:27:04;100329.34;;;9.79;50.26
30021;BME280;16861;52.294;7.760;2023-04-10T04:29:31;100340.75;;;9.80;50.22
30021;BME280;16861;52.294;7.760;2023-04-10T04:31:57;100334.56;;;9.81;50.11
30021;BME280;16861;52.294;7.760;2023-04-10T04:34:24;100329.28;;;9.81;49.83
30021;BME280;16861;52.294;7.760;2023-04-10T04:36:50;100331.91;;;9.81;49.96
30021;BME280;16861;52.294;7.760;2023-04-10T04:39:17;100332.78;;;9.81;49.94
30021;BME280;16861;52.294;7.760;2023-04-10T04:41:44;100330.22;;;9.80;49.94
30021;BME280;16861;52.294;7.760;2023-04-10T04:44:10;100328.53;;;9.78;50.15
30021;BME280;16861;52.294;7.760;2023-04-10T04:46:37;100329.50;;;9.76;49.82
30021;BME280;16861;52.294;7.760;2023-04-10T04:49:03;100331.28;;;9.75;50.07
30021;BME280;16861;52.294;7.760;2023-04-10T04:51:30;100329.56;;;9.74;49.92
30021;BME280;16861;52.294;7.760;2023-04-10T04:53:56;100327.94;;;9.72;50.04
30021;BME280;16861;52.294;7.760;2023-04-10T04:56:23;100327.06;;;9.71;50.17
30021;BME280;16861;52.294;7.760;2023-04-10T04:58:49;100321.03;;;9.69;50.05
30021;BME280;16861;52.294;7.760;2023-04-10T05:01:16;100321.09;;;9.68;50.22
30021;BME280;16861;52.294;7.760;2023-04-10T05:03:42;100319.31;;;9.68;50.23
30021;BME280;16861;52.294;7.760;2023-04-10T05:06:09;100314.13;;;9.67;49.96
30021;BME280;16861;52.294;7.760;2023-04-10T05:08:36;100310.59;;;9.68;50.35
30021;BME280;16861;52.294;7.760;2023-04-10T05:11:02;100315.91;;;9.66;50.48
30021;BME280;16861;52.294;7.760;2023-04-10T05:13:29;100306.31;;;9.65;50.48
30021;BME280;16861;52.294;7.760;2023-04-10T05:15:56;100308.09;;;9.64;50.40
30021;BME280;16861;52.294;7.760;2023-04-10T05:18:22;100310.72;;;9.64;50.33
30021;BME280;16861;52.294;7.760;2023-04-10T05:20:49;100307.22;;;9.64;50.48
30021;BME280;16861;52.294;7.760;2023-04-10T05:23:16;100308.03;;;9.66;50.73
30021;BME280;16861;52.294;7.760;2023-04-10T05:25:42;100304.47;;;9.67;50.57
30021;BME280;16861;52.294;7.760;2023-04-10T05:28:09;100311.38;;;9.70;50.48
30021;BME280;16861;52.294;7.760;2023-04-10T05:30:35;100311.25;;;9.73;50.88
30021;BME280;16861;52.294;7.760;2023-04-10T05:33:02;100313.75;;;9.76;50.65
30021;BME280;16861;52.294;7.760;2023-04-10T05:35:28;100317.00;;;9.81;50.67
30021;BME280;16861;52.294;7.760;2023-04-10T05:37:55;100313.31;;;9.85;50.94
30021;BME280;16861;52.294;7.760;2023-04-10T05:40:22;100314.03;;;9.89;50.82
30021;BME280;16861;52.294;7.760;2023-04-10T05:42:48;100306.78;;;9.94;51.05
30021;BME280;16861;52.294;7.760;2023-04-10T05:45:15;100315.31;;;9.99;51.05
30021;BME280;16861;52.294;7.760;2023-04-10T05:47:42;100308.06;;;10.04;50.79
30021;BME280;16861;52.294;7.760;2023-04-10T05:50:09;100310.47;;;10.09;51.25
30021;BME280;16861;52.294;7.760;2023-04-10T05:52:35;100311.13;;;10.14;50.94
30021;BME280;16861;52.294;7.760;2023-04-10T05:55:02;100307.34;;;10.20;50.91
30021;BME280;16861;52.294;7.760;2023-04-10T05:57:29;100315.03;;;10.25;51.02
30021;BME280;16861;52.294;7.760;2023-04-10T05:59:56;100302.59;;;10.28;50.77
30021;BME280;16861;52.294;7.760;2023-04-10T06:02:22;100304.16;;;10.33;50.85
30021;BME280;16861;52.294;7.760;2023-04-10T06:04:50;100303.16;;;10.35;50.68
30021;BME280;16861;52.294;7.760;2023-04-10T06:07:16;100302.00;;;10.41;50.57
30021;BME280;16861;52.294;7.760;2023-04-10T06:09:43;100298.44;;;10.42;50.44
30021;BME280;16861;52.294;7.760;2023-04-10T06:12:09;100293.06;;;10.45;50.43
30021;BME280;16861;52.294;7.760;2023-04-10T06:14:37;100292.94;;;10.48;50.21
30021;BME280;16861;52.294;7.760;2023-04-10T06:17:03;100285.81;;;10.50;50.30
30021;BME280;16861;52.294;7.760;2023-04-10T06:19:30;100286.59;;;10.52;50.23
30021;BME280;16861;52.294;7.760;2023-04-10T06:21:56;100289.94;;;10.56;50.23
30021;BME280;16861;52.294;7.760;2023-04-10T06:24:23;100283.66;;;10.59;50.12
30021;BME280;16861;52.294;7.760;2023-04-10T06:26:49;100287.84;;;10.63;49.98
30021;BME280;16861;52.294;7.760;2023-04-10T06:29:16;100290.34;;;10.66;50.10
30021;BME280;16861;52.294;7.760;2023-04-10T06:31:43;100284.84;;;10.71;50.28
30021;BME280;16861;52.294;7.760;2023-04-10T06:34:09;100280.22;;;10.76;50.14
30021;BME280;16861;52.294;7.760;2023-04-10T06:36:36;100279.03;;;10.81;50.24
30021;BME280;16861;52.294;7.760;2023-04-10T06:39:03;100279.56;;;10.88;50.35
30021;BME280;16861;52.294;7.760;2023-04-10T06:41:29;100279.22;;;10.96;50.10
30021;BME280;16861;52.294;7.760;2023-04-10T06:43:56;100281.47;;;11.04;50.13
30021;BME280;16861;52.294;7.760;2023-04-10T06:46:22;100278.34;;;11.13;50.01
30021;BME280;16861;52.294;7.760;2023-04-10T06:48:49;100276.19;;;11.21;49.86
30021;BME280;16861;52.294;7.760;2023-04-10T06:51:16;100272.13;;;11.32;49.90
30021;BME280;16861;52.294;7.760;2023-04-10T06:53:42;100266.47;;;11.40;49.53
30021;BME280;16861;52.294;7.760;2023-04-10T06:56:09;100267.53;;;11.53;49.65
30021;BME280;16861;52.294;7.760;2023-04-10T06:58:36;100263.53;;;11.62;49.76
30021;BME280;16861;52.294;7.760;2023-04-10T07:01:02;100251.66;;;11.71;49.49
30021;BME280;16861;52.294;7.760;2023-04-10T07:03:30;100251.06;;;11.82;49.39
30021;BME280;16861;52.294;7.760;2023-04-10T07:05:58;100245.22;;;11.93;49.44
30021;BME280;16861;52.294;7.760;2023-04-10T07:08:25;100242.94;;;12.03;49.24
30021;BME280;16861;52.294;7.760;2023-04-10T07:10:51;100235.28;;;12.14;49.12
30021;BME280;16861;52.294;7.760;2023-04-10T07:13:18;100239.88;;;12.27;48.99
30021;BME280;16861;52.294;7.760;2023-04-10T07:15:44;100240.22;;;12.36;48.81
30021;BME280;16861;52.294;7.760;2023-04-10T07:18:11;100230.72;;;12.48;48.76
30021;BME280;16861;52.294;7.760;2023-04-10T07:20:38;100224.81;;;12.59;48.38
30021;BME280;16861;52.294;7.760;2023-04-10T07:23:04;100222.44;;;12.71;48.43
30021;BME280;16861;52.294;7.760;2023-04-10T07:25:31;100219.97;;;12.82;48.28
30021;BME280;16861;52.294;7.760;2023-04-10T07:27:58;100213.97;;;12.95;48.47
30021;BME280;16861;52.294;7.760;2023-04-10T07:30:25;100215.88;;;13.07;48.34
30021;BME280;16861;52.294;7.760;2023-04-10T07:32:51;100208.16;;;13.19;48.34
30021;BME280;16861;52.294;7.760;2023-04-10T07:35:18;100210.06;;;13.31;48.07
30021;BME280;16861;52.294;7.760;2023-04-10T07:37:45;100201.25;;;13.45;48.14
30021;BME280;16861;52.294;7.760;2023-04-10T07:40:16;100203.09;;;13.59;48.29
30021;BME280;16861;52.294;7.760;2023-04-10T07:42:43;100203.91;;;13.74;47.98
30021;BME280;16861;52.294;7.760;2023-04-10T07:45:10;100204.75;;;13.89;48.05
30021;BME280;16861;52.294;7.760;2023-04-10T07:47:36;100208.28;;;14.03;47.12
30021;BME280;16861;52.294;7.760;2023-04-10T07:50:04;100203.91;;;14.16;47.14
30021;BME280;16861;52.294;7.760;2023-04-10T07:52:30;100204.91;;;14.28;46.65
30021;BME280;16861;52.294;7.760;2023-04-10T07:54:59;100191.91;;;14.38;46.60
30021;BME280;16861;52.294;7.760;2023-04-10T07:57:26;100196.59;;;14.48;46.06
30021;BME280;16861;52.294;7.760;2023-04-10T07:59:53;100185.38;;;14.57;46.11
30021;BME280;16861;52.294;7.760;2023-04-10T08:02:19;100173.41;;;14.64;45.96
30021;BME280;16861;52.294;7.760;2023-04-10T08:04:46;100167.69;;;14.70;45.29
30021;BME280;16861;52.294;7.760;2023-04-10T08:07:13;100169.97;;;14.77;44.92
30021;BME280;16861;52.294;7.760;2023-04-10T08:09:39;100159.16;;;14.80;45.00
30021;BME280;16861;52.294;7.760;2023-04-10T08:12:06;100170.41;;;14.83;44.60
30021;BME280;16861;52.294;7.760;2023-04-10T08:14:32;100156.28;;;14.83;44.62
30021;BME280;16861;52.294;7.760;2023-04-10T08:16:59;100153.53;;;14.84;44.44
30021;BME280;16861;52.294;7.760;2023-04-10T08:19:26;100145.59;;;14.84;44.25
30021;BME280;16861;52.294;7.760;2023-04-10T08:21:53;100143.91;;;14.83;43.62
30021;BME280;16861;52.294;7.760;2023-04-10T08:24:20;100134.25;;;14.82;43.91
30021;BME280;16861;52.294;7.760;2023-04-10T08:26:48;100135.09;;;14.83;44.03
30021;BME280;16861;52.294;7.760;2023-04-10T08:29:15;100130.75;;;14.82;43.72
30021;BME280;16861;52.294;7.760;2023-04-10T08:31:41;100122.78;;;14.82;44.04
30021;BME280;16861;52.294;7.760;2023-04-10T08:34:08;100118.25;;;14.84;44.18
30021;BME280;16861;52.294;7.760;2023-04-10T08:36:34;100120.91;;;14.84;43.81
30021;BME280;16861;52.294;7.760;2023-04-10T08:39:01;100120.91;;;14.84;43.80
30021;BME280;16861;52.294;7.760;2023-04-10T08:41:27;100116.53;;;14.83;43.74
30021;BME280;16861;52.294;7.760;2023-04-10T08:43:55;100109.53;;;14.82;43.73
30021;BME280;16861;52.294;7.760;2023-04-10T08:46:23;100103.28;;;14.83;43.91
30021;BME280;16861;52.294;7.760;2023-04-10T08:49:03;100098.22;;;14.80;43.70
30021;BME280;16861;52.294;7.760;2023-04-10T08:51:54;100106.91;;;14.82;43.51
30021;BME280;16861;52.294;7.760;2023-04-10T08:54:29;100095.03;;;14.88;43.13
30021;BME280;16861;52.294;7.760;2023-04-10T08:56:58;100093.75;;;14.93;43.58
30021;BME280;16861;52.294;7.760;2023-04-10T08:59:27;100095.25;;;14.97;43.77
30021;BME280;16861;52.294;7.760;2023-04-10T09:01:56;100088.75;;;15.02;44.02
30021;BME280;16861;52.294;7.760;2023-04-10T09:04:24;100092.91;;;15.06;43.29
30021;BME280;16861;52.294;7.760;2023-04-10T09:06:54;100087.25;;;15.10;43.45
30021;BME280;16861;52.294;7.760;2023-04-10T09:09:21;100080.78;;;15.15;43.51
30021;BME280;16861;52.294;7.760;2023-04-10T09:14:20;100073.97;;;15.23;43.67
30021;BME280;16861;52.294;7.760;2023-04-10T09:16:48;100075.00;;;15.34;43.68
30021;BME280;16861;52.294;7.760;2023-04-10T09:19:31;100066.59;;;15.40;43.22
30021;BME280;16861;52.294;7.760;2023-04-10T09:21:58;100075.13;;;15.57;43.98
30021;BME280;16861;52.294;7.760;2023-04-10T09:24:26;100068.94;;;15.69;43.59
30021;BME280;16861;52.294;7.760;2023-04-10T09:26:53;100058.25;;;15.82;43.61
30021;BME280;16861;52.294;7.760;2023-04-10T09:29:20;100054.59;;;15.96;43.10
30021;BME280;16861;52.294;7.760;2023-04-10T09:31:47;100050.03;;;16.10;43.32
30021;BME280;16861;52.294;7.760;2023-04-10T09:34:19;100053.34;;;16.25;43.40
30021;BME280;16861;52.294;7.760;2023-04-10T09:36:59;100042.63;;;16.38;42.34
30021;BME280;16861;52.294;7.760;2023-04-10T09:39:35;100045.53;;;16.58;42.23
30021;BME280;16861;52.294;7.760;2023-04-10T09:42:02;100030.84;;;16.76;42.35
30021;BME280;16861;52.294;7.760;2023-04-10T09:47:19;100029.41;;;17.06;42.17
30021;BME280;16861;52.294;7.760;2023-04-10T09:49:47;100027.91;;;17.25;42.03
30021;BME280;16861;52.294;7.760;2023-04-10T09:52:28;100026.91;;;17.38;40.85
30021;BME280;16861;52.294;7.760;2023-04-10T09:54:57;100022.00;;;17.54;41.41
30021;BME280;16861;52.294;7.760;2023-04-10T09:57:26;100023.66;;;17.67;40.90
30021;BME280;16861;52.294;7.760;2023-04-10T09:59:57;100023.38;;;17.81;41.00
30021;BME280;16861;52.294;7.760;2023-04-10T10:02:25;100023.75;;;17.98;41.26
30021;BME280;16861;52.294;7.760;2023-04-10T10:04:54;100019.94;;;18.12;40.89
30021;BME280;16861;52.294;7.760;2023-04-10T10:07:23;100013.59;;;18.25;40.14
30021;BME280;16861;52.294;7.760;2023-04-10T10:09:50;100011.97;;;18.33;39.16
30021;BME280;16861;52.294;7.760;2023-04-10T10:15:00;99991.97;;;18.49;38.66
30021;BME280;16861;52.294;7.760;2023-04-10T10:18:03;99988.50;;;18.58;39.71
30021;BME280;16861;52.294;7.760;2023-04-10T10:20:33;99974.81;;;18.73;39.72
30021;BME280;16861;52.294;7.760;2023-04-10T10:23:02;99980.03;;;18.84;39.31
30021;BME280;16861;52.294;7.760;2023-04-10T10:25:30;99982.97;;;18.91;38.58
30021;BME280;16861;52.294;7.760;2023-04-10T10:27:59;99976.69;;;18.92;37.44
30021;BME280;16861;52.294;7.760;2023-04-10T10:30:31;99970.94;;;18.97;38.08
30021;BME280;16861;52.294;7.760;2023-04-10T10:32:58;99959.13;;;18.99;38.30
30021;BME280;16861;52.294;7.760;2023-04-10T10:35:33;99962.53;;;19.01;37.68
30021;BME280;16861;52.294;7.760;2023-04-10T10:38:02;99960.19;;;19.08;38.08
30021;BME280;16861;52.294;7.760;2023-04-10T10:40:40;99954.41;;;19.13;37.41
30021;BME280;16861;52.294;7.760;2023-04-10T10:43:17;99952.03;;;19.20;36.78
30021;BME280;16861;52.294;7.760;2023-04-10T10:45:51;99949.22;;;19.21;36.53
30021;BME280;16861;52.294;7.760;2023-04-10T10:48:19;99943.75;;;19.23;35.45
30021;BME280;16861;52.294;7.760;2023-04-10T10:50:59;99937.44;;;19.14;32.77
30021;BME280;16861;52.294;7.760;2023-04-10T10:53:38;99935.72;;;19.03;31.76
30021;BME280;16861;52.294;7.760;2023-04-10T10:58:49;99916.88;;;18.95;33.65
30021;BME280;16861;52.294;7.760;2023-04-10T11:01:17;99908.59;;;18.98;35.54
30021;BME280;16861;52.294;7.760;2023-04-10T11:03:44;99892.19;;;19.02;34.88
30021;BME280;16861;52.294;7.760;2023-04-10T11:06:14;99902.59;;;19.16;34.98
30021;BME280;16861;52.294;7.760;2023-04-10T11:08:44;99892.06;;;19.34;35.12
30021;BME280;16861;52.294;7.760;2023-04-10T11:16:16;99875.97;;;19.83;34.46
30021;BME280;16861;52.294;7.760;2023-04-10T11:21:22;99870.16;;;20.08;34.01
30021;BME280;16861;52.294;7.760;2023-04-10T11:31:43;99855.25;;;20.33;33.39
30021;BME280;16861;52.294;7.760;2023-04-10T11:34:10;99848.63;;;20.37;33.43
30021;BME280;16861;52.294;7.760;2023-04-10T11:36:39;99843.06;;;20.49;33.09
30021;BME280;16861;52.294;7.760;2023-04-10T11:39:10;99830.19;;;20.62;32.87
30021;BME280;16861;52.294;7.760;2023-04-10T11:41:45;99826.91;;;20.87;33.18
30021;BME280;16861;52.294;7.760;2023-04-10T11:44:13;99835.41;;;21.18;33.27
30021;BME280;16861;52.294;7.760;2023-04-10T11:46:44;99810.47;;;21.44;32.35
30021;BME280;16861;52.294;7.760;2023-04-10T11:49:18;99816.31;;;21.66;30.72
30021;BME280;16861;52.294;7.760;2023-04-10T11:51:46;99817.41;;;21.82;30.41
30021;BME280;16861;52.294;7.760;2023-04-10T11:54:18;99794.53;;;21.96;30.57
30021;BME280;16861;52.294;7.760;2023-04-10T11:59:24;99786.97;;;22.43;31.65
30021;BME280;16861;52.294;7.760;2023-04-10T12:01:53;99790.72;;;22.67;31.09
30021;BME280;16861;52.294;7.760;2023-04-10T12:04:28;99779.84;;;22.93;31.02
30021;BME280;16861;52.294;7.760;2023-04-10T12:06:56;99777.81;;;23.12;30.39
30021;BME280;16861;52.294;7.760;2023-04-10T12:09:22;99772.41;;;23.28;30.71
30021;BME280;16861;52.294;7.760;2023-04-10T12:14:40;99785.84;;;23.45;25.42
30021;BME280;16861;52.294;7.760;2023-04-10T12:17:09;99782.47;;;23.43;27.10
30021;BME280;16861;52.294;7.760;2023-04-10T12:19:39;99778.44;;;23.30;26.50
30021;BME280;16861;52.294;7.760;2023-04-10T12:22:06;99775.13;;;23.20;28.37
30021;BME280;16861;52.294;7.760;2023-04-10T12:24:50;99764.53;;;23.10;28.44
30021;BME280;16861;52.294;7.760;2023-04-10T12:27:19;99765.72;;;23.16;28.45
30021;BME280;16861;52.294;7.760;2023-04-10T12:29:47;99749.91;;;23.29;28.95
30021;BME280;16861;52.294;7.760;2023-04-10T12:32:14;99749.91;;;23.54;29.04
30021;BME280;16861;52.294;7.760;2023-04-10T12:34:41;99752.13;;;23.82;28.91
30021;BME280;16861;52.294;7.760;2023-04-10T12:37:14;99729.16;;;24.12;28.44
30021;BME280;16861;52.294;7.760;2023-04-10T12:39:41;99736.41;;;24.34;28.55
30021;BME280;16861;52.294;7.760;2023-04-10T12:42:15;99721.19;;;24.50;26.79
30021;BME280;16861;52.294;7.760;2023-04-10T12:44:55;99731.72;;;24.60;26.75
30021;BME280;16861;52.294;7.760;2023-04-10T12:47:22;99727.75;;;24.71;27.13
30021;BME280;16861;52.294;7.760;2023-04-10T12:50:05;99713.25;;;24.72;26.97
30021;BME280;16861;52.294;7.760;2023-04-10T12:52:32;99704.94;;;24.82;27.33
30021;BME280;16861;52.294;7.760;2023-04-10T12:55:15;99701.91;;;24.85;26.12
30021;BME280;16861;52.294;7.760;2023-04-10T12:57:47;99713.63;;;24.92;24.86
30021;BME280;16861;52.294;7.760;2023-04-10T13:00:16;99687.16;;;24.96;25.95
30021;BME280;16861;52.294;7.760;2023-04-10T13:02:44;99694.13;;;24.90;25.35
30021;BME280;16861;52.294;7.760;2023-04-10T13:05:11;99696.09;;;24.73;25.15
30021;BME280;16861;52.294;7.760;2023-04-10T13:07:38;99671.53;;;24.53;25.70
30021;BME280;16861;52.294;7.760;2023-04-10T13:10:06;99675.03;;;24.38;26.78
30021;BME280;16861;52.294;7.760;2023-04-10T13:12:33;99665.09;;;24.39;27.11
30021;BME280;16861;52.294;7.760;2023-04-10T13:15:01;99663.66;;;24.51;27.10
30021;BME280;16861;52.294;7.760;2023-04-10T13:17:28;99659.44;;;24.72;26.59
30021;BME280;16861;52.294;7.760;2023-04-10T13:19:54;99634.50;;;24.93;26.53
30021;BME280;16861;52.294;7.760;2023-04-10T13:22:21;99635.72;;;25.21;26.52
30021;BME280;16861;52.294;7.760;2023-04-10T13:24:48;99628.63;;;25.50;27.09
30021;BME280;16861;52.294;7.760;2023-04-10T13:27:14;99618.88;;;25.86;25.88
30021;BME280;16861;52.294;7.760;2023-04-10T13:29:43;99628.88;;;26.29;26.97
30021;BME280;16861;52.294;7.760;2023-04-10T13:32:09;99594.06;;;26.70;26.37
30021;BME280;16861;52.294;7.760;2023-04-10T13:34:36;99604.72;;;27.13;26.39
30021;BME280;16861;52.294;7.760;2023-04-10T13:37:03;99592.38;;;27.46;24.49
30021;BME280;16861;52.294;7.760;2023-04-10T13:39:29;99578.34;;;27.78;24.83
30021;BME280;16861;52.294;7.760;2023-04-10T13:41:59;99579.41;;;28.04;23.80
30021;BME280;16861;52.294;7.760;2023-04-10T13:44:27;99599.84;;;28.33;24.43
30021;BME280;16861;52.294;7.760;2023-04-10T13:47:03;99578.81;;;28.42;22.22
30021;BME280;16861;52.294;7.760;2023-04-10T13:49:56;99578.59;;;28.30;21.54